Time;durP1;ratioP1;P1;durP2;ratioP2;P2;SDS_P1;SDS_P2;PMS_P1;PMS_P2;Temp;Humidity;BMP_temperature;BMP_pressure;BME280_temperature;BME280_humidity;BME280_pressure;Samples;Min_cycle;Max_cycle;Signal;HPM_P1;HPM_P2
2021/05/15 00:01:05;;;;;;;22.77;13.87;;;;;;;;;;5027966;28;20184;-70
2021/05/15 00:03:31;;;;;;;21.23;13.27;;;;;;;;;;5019159;28;20247;-70
2021/05/15 00:05:56;;;;;;;20.13;13.83;;;;;;;;;;5029460;28;20185;-70
2021/05/15 00:08:21;;;;;;;20.37;15.10;;;;;;;;;;5017425;28;20200;-70
2021/05/15 00:10:48;;;;;;;22.93;14.03;;;;;;;;;;5025415;28;20202;-70
2021/05/15 00:13:14;;;;;;;20.50;14.07;;;;;;;;;;5018150;28;20190;-70
2021/05/15 00:15:39;;;;;;;24.93;15.10;;;;;;;;;;5025652;28;20284;-70
2021/05/15 00:18:05;;;;;;;29.40;15.93;;;;;;;;;;5026139;28;20336;-70
2021/05/15 00:20:30;;;;;;;29.93;17.00;;;;;;;;;;5018345;28;20649;-70
2021/05/15 00:22:55;;;;;;;33.70;18.80;;;;;;;;;;5026828;28;20187;-70
2021/05/15 00:25:21;;;;;;;31.97;18.60;;;;;;;;;;5018812;28;20203;-70
2021/05/15 00:27:47;;;;;;;42.37;20.27;;;;;;;;;;5023035;28;20185;-70
2021/05/15 00:30:14;;;;;;;34.30;20.60;;;;;;;;;;5018725;28;20406;-70
2021/05/15 00:32:41;;;;;;;36.30;20.40;;;;;;;;;;5025439;28;20645;-70
2021/05/15 00:35:07;;;;;;;38.50;19.47;;;;;;;;;;5020074;28;20173;-70
2021/05/15 00:37:32;;;;;;;33.27;21.23;;;;;;;;;;5025815;28;20189;-70
2021/05/15 00:39:58;;;;;;;34.77;20.67;;;;;;;;;;5016424;28;20605;-70
2021/05/15 00:42:23;;;;;;;42.67;22.40;;;;;;;;;;5025897;28;20784;-70
2021/05/15 00:44:49;;;;;;;37.83;21.43;;;;;;;;;;4999190;28;546802;-70
2021/05/15 00:47:16;;;;;;;37.33;21.40;;;;;;;;;;5027159;28;20230;-70
2021/05/15 00:49:43;;;;;;;37.40;21.40;;;;;;;;;;5026302;28;20206;-70
2021/05/15 00:52:09;;;;;;;35.40;20.73;;;;;;;;;;5017942;28;20720;-70
2021/05/15 00:54:39;;;;;;;40.53;21.27;;;;;;;;;;5027561;28;20201;-70
2021/05/15 00:57:06;;;;;;;40.00;22.43;;;;;;;;;;5017340;28;20185;-70
2021/05/15 00:59:31;;;;;;;40.80;22.87;;;;;;;;;;5028894;28;20549;-70
2021/05/15 01:01:57;;;;;;;45.10;22.53;;;;;;;;;;5020372;28;20235;-70
2021/05/15 01:04:22;;;;;;;40.13;22.80;;;;;;;;;;5027524;28;22206;-70
2021/05/15 01:06:48;;;;;;;42.73;22.40;;;;;;;;;;5021706;28;20205;-71
2021/05/15 01:09:13;;;;;;;45.00;22.10;;;;;;;;;;5024425;28;20219;-71
2021/05/15 01:11:39;;;;;;;43.77;21.93;;;;;;;;;;5018512;28;20217;-71
2021/05/15 01:14:04;;;;;;;41.73;22.73;;;;;;;;;;5026133;28;20255;-70
2021/05/15 01:16:31;;;;;;;41.03;22.43;;;;;;;;;;5018840;28;21384;-71
2021/05/15 01:18:58;;;;;;;36.63;21.37;;;;;;;;;;5028925;28;20671;-71
2021/05/15 01:21:23;;;;;;;39.17;21.80;;;;;;;;;;5025434;28;20690;-71
2021/05/15 01:23:48;;;;;;;39.33;21.90;;;;;;;;;;5020073;28;20209;-70
2021/05/15 01:26:19;;;;;;;38.10;21.37;;;;;;;;;;5026474;28;20213;-70
2021/05/15 01:28:46;;;;;;;39.43;20.83;;;;;;;;;;5016797;28;20190;-70
2021/05/15 01:31:12;;;;;;;36.13;21.27;;;;;;;;;;5027746;28;22769;-70
2021/05/15 01:33:38;;;;;;;34.40;20.90;;;;;;;;;;5018907;28;20194;-70
2021/05/15 01:36:05;;;;;;;35.37;19.40;;;;;;;;;;5024189;28;20193;-70
2021/05/15 01:38:30;;;;;;;41.40;20.55;;;;;;;;;;5017196;28;20235;-70
2021/05/15 01:41:01;;;;;;;40.87;20.60;;;;;;;;;;5027609;28;20186;-70
2021/05/15 01:43:26;;;;;;;39.13;19.20;;;;;;;;;;5017169;28;20202;-70
2021/05/15 01:45:52;;;;;;;38.13;21.00;;;;;;;;;;5026245;28;20589;-70
2021/05/15 01:48:17;;;;;;;34.83;20.13;;;;;;;;;;5014272;28;20288;-70
2021/05/15 01:51:02;;;;;;;36.40;19.92;;;;;;;;;;5026953;28;20218;-70
2021/05/15 01:53:33;;;;;;;38.67;20.60;;;;;;;;;;5015539;28;20256;-70
2021/05/15 01:55:59;;;;;;;33.90;19.38;;;;;;;;;;5026060;28;20182;-70
2021/05/15 01:58:25;;;;;;;38.28;20.25;;;;;;;;;;5021564;28;20232;-70
2021/05/15 02:00:51;;;;;;;34.50;20.50;;;;;;;;;;5017531;28;20322;-70
2021/05/15 02:03:18;;;;;;;43.28;22.38;;;;;;;;;;5024943;28;20798;-70
2021/05/15 02:05:43;;;;;;;43.15;21.50;;;;;;;;;;5018659;28;20201;-70
2021/05/15 02:08:10;;;;;;;38.60;20.77;;;;;;;;;;5023671;28;20198;-70
2021/05/15 02:10:36;;;;;;;36.30;20.63;;;;;;;;;;5017614;28;20315;-70
2021/05/15 02:13:02;;;;;;;39.23;22.10;;;;;;;;;;5027794;28;20189;-70
2021/05/15 02:15:28;;;;;;;41.17;22.60;;;;;;;;;;5016911;28;20337;-70
2021/05/15 02:17:53;;;;;;;42.60;21.03;;;;;;;;;;5024883;28;20271;-70
2021/05/15 02:20:18;;;;;;;37.50;20.23;;;;;;;;;;5015474;28;20200;-70
2021/05/15 02:22:44;;;;;;;40.57;22.03;;;;;;;;;;5024883;28;20633;-70
2021/05/15 02:25:10;;;;;;;37.57;20.67;;;;;;;;;;5016429;28;21367;-70
2021/05/15 02:27:35;;;;;;;44.20;20.90;;;;;;;;;;5025192;28;20206;-70
2021/05/15 02:30:01;;;;;;;41.77;21.37;;;;;;;;;;5023600;28;20336;-70
2021/05/15 02:32:26;;;;;;;34.90;20.37;;;;;;;;;;5016499;28;20243;-70
2021/05/15 02:34:51;;;;;;;39.00;20.70;;;;;;;;;;5023514;28;20197;-70
2021/05/15 02:37:17;;;;;;;39.60;21.83;;;;;;;;;;5014895;28;20793;-70
2021/05/15 02:39:42;;;;;;;40.10;20.90;;;;;;;;;;5027562;28;20630;-70
2021/05/15 02:42:07;;;;;;;37.97;21.33;;;;;;;;;;5017148;28;20201;-70
2021/05/15 02:44:33;;;;;;;42.33;21.30;;;;;;;;;;5026256;28;20240;-70
2021/05/15 02:46:58;;;;;;;39.42;20.73;;;;;;;;;;5016234;28;20200;-70
2021/05/15 02:49:24;;;;;;;42.40;22.03;;;;;;;;;;5024635;28;20247;-70
2021/05/15 02:51:49;;;;;;;44.67;22.17;;;;;;;;;;5015906;28;20241;-70
2021/05/15 02:54:14;;;;;;;49.40;22.53;;;;;;;;;;5023103;28;20594;-70
2021/05/15 02:56:40;;;;;;;43.20;21.63;;;;;;;;;;5021842;28;20208;-70
2021/05/15 02:59:05;;;;;;;43.50;22.87;;;;;;;;;;5021256;28;20194;-70
2021/05/15 03:01:30;;;;;;;41.57;21.33;;;;;;;;;;5026860;28;20221;-70
2021/05/15 03:03:56;;;;;;;46.00;22.20;;;;;;;;;;5014991;28;20208;-70
2021/05/15 03:06:21;;;;;;;38.97;21.47;;;;;;;;;;5024077;28;20694;-70
2021/05/15 03:08:46;;;;;;;41.47;21.80;;;;;;;;;;5019732;28;20205;-69
2021/05/15 03:11:12;;;;;;;43.17;22.10;;;;;;;;;;5026506;28;20275;-69
2021/05/15 03:13:37;;;;;;;38.63;21.20;;;;;;;;;;5013469;28;20280;-69
2021/05/15 03:16:03;;;;;;;37.83;20.33;;;;;;;;;;5027104;28;20256;-70
2021/05/15 03:18:29;;;;;;;40.70;21.20;;;;;;;;;;5017882;28;20244;-70
2021/05/15 03:20:55;;;;;;;38.93;21.13;;;;;;;;;;5024715;28;20186;-69
2021/05/15 03:23:21;;;;;;;37.77;20.27;;;;;;;;;;5016265;28;20204;-70
2021/05/15 03:25:46;;;;;;;41.27;21.33;;;;;;;;;;5023784;28;20524;-70
2021/05/15 03:28:11;;;;;;;36.10;20.93;;;;;;;;;;5024618;28;20476;-70
2021/05/15 03:30:37;;;;;;;38.03;20.43;;;;;;;;;;5017170;28;20674;-70
2021/05/15 03:33:02;;;;;;;32.37;19.53;;;;;;;;;;5024489;28;20255;-70
2021/05/15 03:35:28;;;;;;;37.43;21.10;;;;;;;;;;5019666;28;20202;-70
2021/05/15 03:37:53;;;;;;;40.10;21.27;;;;;;;;;;5028404;28;20198;-70
2021/05/15 03:40:19;;;;;;;36.50;20.50;;;;;;;;;;5021096;28;20221;-70
2021/05/15 03:42:47;;;;;;;39.63;20.07;;;;;;;;;;5027291;28;20206;-70
2021/05/15 03:45:13;;;;;;;34.37;19.23;;;;;;;;;;5020612;28;20267;-70
2021/05/15 03:47:38;;;;;;;40.07;21.20;;;;;;;;;;5029281;28;20197;-70
2021/05/15 03:50:05;;;;;;;41.10;21.00;;;;;;;;;;5024209;28;20197;-70
2021/05/15 03:52:30;;;;;;;39.87;20.17;;;;;;;;;;5028592;28;20545;-71
2021/05/15 03:54:55;;;;;;;35.47;19.47;;;;;;;;;;5020016;28;20190;-70
2021/05/15 03:57:21;;;;;;;36.77;19.63;;;;;;;;;;5028013;28;20201;-70
2021/05/15 03:59:46;;;;;;;33.97;19.27;;;;;;;;;;5027498;28;20243;-70
2021/05/15 04:02:11;;;;;;;33.22;20.02;;;;;;;;;;5018320;28;20270;-70
2021/05/15 04:04:37;;;;;;;35.97;19.57;;;;;;;;;;5026769;28;20218;-70
2021/05/15 04:07:03;;;;;;;37.42;19.73;;;;;;;;;;5019143;28;21803;-70
2021/05/15 04:09:28;;;;;;;35.88;19.83;;;;;;;;;;5028573;28;21401;-70
2021/05/15 04:11:54;;;;;;;40.65;20.40;;;;;;;;;;5021656;28;20217;-71
2021/05/15 04:14:26;;;;;;;35.42;20.88;;;;;;;;;;5028831;28;20185;-70
2021/05/15 04:19:32;;;;;;;39.43;20.93;;;;;;;;;;5028685;28;20271;-70
2021/05/15 04:21:57;;;;;;;44.67;21.33;;;;;;;;;;5018872;28;20240;-70
2021/05/15 04:24:25;;;;;;;39.55;20.80;;;;;;;;;;5029755;28;20193;-70
2021/05/15 04:26:52;;;;;;;37.95;19.98;;;;;;;;;;5015606;28;20901;-70
2021/05/15 04:29:17;;;;;;;41.63;21.45;;;;;;;;;;5028600;28;20186;-70
2021/05/15 04:31:43;;;;;;;36.72;21.25;;;;;;;;;;5026510;28;20718;-70
2021/05/15 04:34:08;;;;;;;35.25;20.20;;;;;;;;;;5019239;28;21904;-70
2021/05/15 04:36:33;;;;;;;44.10;22.08;;;;;;;;;;5026984;28;20471;-70
2021/05/15 04:38:59;;;;;;;38.30;21.23;;;;;;;;;;5022926;28;20196;-70
2021/05/15 04:41:24;;;;;;;40.45;21.90;;;;;;;;;;5031684;28;20265;-70
2021/05/15 04:43:50;;;;;;;41.30;21.30;;;;;;;;;;5024009;28;20237;-70
2021/05/15 04:46:15;;;;;;;40.97;22.73;;;;;;;;;;5027784;28;20202;-70
2021/05/15 04:48:44;;;;;;;45.53;22.90;;;;;;;;;;5022091;28;20181;-70
2021/05/15 04:51:09;;;;;;;39.63;22.20;;;;;;;;;;5030758;28;20542;-70
2021/05/15 04:53:34;;;;;;;42.13;22.73;;;;;;;;;;5021669;28;20189;-70
2021/05/15 04:56:00;;;;;;;44.38;22.55;;;;;;;;;;5029851;28;20208;-70
2021/05/15 04:58:26;;;;;;;36.22;21.40;;;;;;;;;;5020095;28;20196;-70
2021/05/15 05:00:51;;;;;;;43.65;23.40;;;;;;;;;;5030407;28;20192;-70
2021/05/15 05:03:17;;;;;;;43.03;23.05;;;;;;;;;;5029338;28;20288;-70
2021/05/15 05:05:42;;;;;;;38.20;22.42;;;;;;;;;;5019928;28;20316;-70
2021/05/15 05:08:08;;;;;;;42.30;22.52;;;;;;;;;;5028519;28;20230;-70
2021/05/15 05:10:33;;;;;;;38.03;22.85;;;;;;;;;;5020549;28;20209;-71
2021/05/15 05:13:05;;;;;;;39.00;23.20;;;;;;;;;;5031693;28;20185;-70
2021/05/15 05:15:31;;;;;;;40.00;22.38;;;;;;;;;;5020137;28;20269;-70
2021/05/15 05:17:56;;;;;;;36.75;21.98;;;;;;;;;;5027860;28;20277;-70
2021/05/15 05:20:21;;;;;;;40.53;22.55;;;;;;;;;;5016796;28;20205;-70
2021/05/15 05:22:47;;;;;;;41.25;23.30;;;;;;;;;;5026300;28;20739;-70
2021/05/15 05:25:13;;;;;;;39.53;23.20;;;;;;;;;;5018061;28;20204;-71
2021/05/15 05:27:46;;;;;;;40.90;23.63;;;;;;;;;;5028620;28;20216;-70
2021/05/15 05:30:13;;;;;;;38.65;22.13;;;;;;;;;;5018085;28;20709;-70
2021/05/15 05:32:38;;;;;;;40.08;22.90;;;;;;;;;;5024006;28;20212;-70
2021/05/15 05:35:04;;;;;;;41.33;23.30;;;;;;;;;;5027953;28;20656;-70
2021/05/15 05:37:30;;;;;;;40.30;22.73;;;;;;;;;;5018458;28;20282;-71
2021/05/15 05:39:55;;;;;;;38.83;23.58;;;;;;;;;;5026367;28;20197;-71
2021/05/15 05:42:20;;;;;;;43.22;24.40;;;;;;;;;;5019147;28;20277;-71
2021/05/15 05:44:46;;;;;;;44.33;25.13;;;;;;;;;;5027109;28;20230;-70
2021/05/15 05:47:12;;;;;;;39.35;24.30;;;;;;;;;;5017639;28;20201;-71
2021/05/15 05:49:37;;;;;;;37.33;23.65;;;;;;;;;;5027703;28;20201;-70
2021/05/15 05:52:03;;;;;;;42.92;23.30;;;;;;;;;;5017956;28;20557;-71
2021/05/15 05:54:29;;;;;;;43.53;24.17;;;;;;;;;;5023596;28;20649;-71
2021/05/15 05:56:54;;;;;;;40.00;23.38;;;;;;;;;;5021018;28;20190;-71
2021/05/15 05:59:19;;;;;;;37.05;23.27;;;;;;;;;;5028221;28;20185;-71
2021/05/15 06:01:45;;;;;;;40.80;23.42;;;;;;;;;;5017014;28;20209;-71
2021/05/15 06:04:10;;;;;;;45.50;24.30;;;;;;;;;;5025410;28;20209;-71
2021/05/15 06:06:36;;;;;;;40.90;24.05;;;;;;;;;;5025724;28;20228;-71
2021/05/15 06:09:03;;;;;;;40.95;24.92;;;;;;;;;;5016692;28;20634;-71
2021/05/15 06:11:28;;;;;;;39.30;24.05;;;;;;;;;;5027262;28;20209;-71
2021/05/15 06:13:54;;;;;;;39.95;24.75;;;;;;;;;;5020646;28;20200;-71
2021/05/15 06:16:19;;;;;;;38.38;23.58;;;;;;;;;;5025667;28;20177;-69
2021/05/15 06:18:44;;;;;;;35.85;23.83;;;;;;;;;;5016440;28;20213;-71
2021/05/15 06:21:10;;;;;;;41.92;24.95;;;;;;;;;;5024894;28;20185;-70
2021/05/15 06:23:35;;;;;;;39.58;25.58;;;;;;;;;;5020392;28;20248;-70
2021/05/15 06:26:02;;;;;;;37.08;23.85;;;;;;;;;;5025070;28;20290;-70
2021/05/15 06:28:27;;;;;;;39.30;24.98;;;;;;;;;;5017917;28;20304;-70
2021/05/15 06:30:53;;;;;;;41.53;24.08;;;;;;;;;;5027677;28;20220;-70
2021/05/15 06:33:18;;;;;;;37.33;24.48;;;;;;;;;;5018436;28;20276;-70
2021/05/15 06:35:43;;;;;;;38.53;24.50;;;;;;;;;;5025797;28;20428;-71
2021/05/15 06:38:09;;;;;;;38.30;23.65;;;;;;;;;;5024516;28;20188;-71
2021/05/15 06:40:35;;;;;;;37.97;25.27;;;;;;;;;;5019501;28;20186;-71
2021/05/15 06:43:00;;;;;;;35.90;24.17;;;;;;;;;;5023518;28;20189;-71
2021/05/15 06:45:26;;;;;;;42.70;24.88;;;;;;;;;;5018197;28;20765;-71
2021/05/15 06:47:53;;;;;;;38.08;23.75;;;;;;;;;;5027109;28;20692;-71
2021/05/15 06:50:18;;;;;;;36.35;24.20;;;;;;;;;;5018587;28;20186;-71
2021/05/15 06:52:44;;;;;;;37.58;23.83;;;;;;;;;;5026419;28;20193;-71
2021/05/15 06:55:10;;;;;;;40.17;24.70;;;;;;;;;;5020659;28;20224;-71
2021/05/15 06:57:35;;;;;;;35.25;24.08;;;;;;;;;;5027323;28;20194;-71
2021/05/15 07:00:00;;;;;;;38.08;26.65;;;;;;;;;;5018339;28;20228;-71
2021/05/15 07:02:26;;;;;;;39.55;27.15;;;;;;;;;;5025410;28;20190;-71
2021/05/15 07:04:52;;;;;;;38.33;27.55;;;;;;;;;;5020661;28;20197;-71
2021/05/15 07:07:17;;;;;;;41.20;28.85;;;;;;;;;;5025824;28;20634;-70
2021/05/15 07:09:43;;;;;;;39.20;28.05;;;;;;;;;;5029025;28;20198;-71
2021/05/15 07:12:09;;;;;;;40.97;29.13;;;;;;;;;;5020327;28;20217;-71
2021/05/15 07:14:34;;;;;;;35.88;25.23;;;;;;;;;;5028611;28;20193;-71
2021/05/15 07:16:59;;;;;;;36.20;25.95;;;;;;;;;;5023654;28;20672;-70
2021/05/15 07:19:25;;;;;;;34.15;23.92;;;;;;;;;;5029963;28;20186;-70
2021/05/15 07:21:51;;;;;;;38.40;27.13;;;;;;;;;;5022270;28;20642;-70
2021/05/15 07:24:16;;;;;;;35.63;26.52;;;;;;;;;;5031995;28;20201;-71
2021/05/15 07:26:41;;;;;;;34.85;25.05;;;;;;;;;;5021392;28;20201;-71
2021/05/15 07:29:07;;;;;;;32.60;26.33;;;;;;;;;;5029595;28;20196;-70
2021/05/15 07:31:32;;;;;;;39.20;27.67;;;;;;;;;;5016487;28;20205;-71
2021/05/15 07:33:57;;;;;;;35.40;26.98;;;;;;;;;;5026087;28;20190;-71
2021/05/15 07:36:23;;;;;;;35.42;27.05;;;;;;;;;;5027757;28;20189;-70
2021/05/15 07:38:48;;;;;;;36.33;28.08;;;;;;;;;;5026548;28;20281;-71
2021/05/15 07:41:15;;;;;;;39.25;30.25;;;;;;;;;;5026849;28;20201;-70
2021/05/15 07:43:41;;;;;;;38.55;29.77;;;;;;;;;;5020180;28;21304;-70
2021/05/15 07:46:06;;;;;;;35.90;28.63;;;;;;;;;;5026068;28;20190;-68
2021/05/15 07:48:39;;;;;;;34.08;27.15;;;;;;;;;;5019327;28;20212;-69
2021/05/15 07:51:07;;;;;;;36.47;29.20;;;;;;;;;;5024334;28;20593;-69
2021/05/15 07:53:33;;;;;;;35.35;28.88;;;;;;;;;;5019670;28;21245;-69
2021/05/15 07:55:58;;;;;;;38.70;28.17;;;;;;;;;;5031543;28;20201;-68
2021/05/15 07:58:24;;;;;;;38.42;30.63;;;;;;;;;;5018606;28;20252;-69
2021/05/15 08:00:49;;;;;;;36.45;29.45;;;;;;;;;;5026610;28;20194;-68
2021/05/15 08:03:15;;;;;;;37.03;29.75;;;;;;;;;;5022554;28;20222;-70
2021/05/15 08:05:40;;;;;;;36.85;28.65;;;;;;;;;;5025225;28;20196;-70
2021/05/15 08:08:06;;;;;;;38.22;28.63;;;;;;;;;;5020197;28;20303;-70
2021/05/15 08:10:32;;;;;;;37.92;30.30;;;;;;;;;;5024295;28;20186;-70
2021/05/15 08:12:58;;;;;;;37.47;27.88;;;;;;;;;;5031125;28;20212;-69
2021/05/15 08:15:24;;;;;;;41.97;30.40;;;;;;;;;;5019141;28;20585;-69
2021/05/15 08:17:50;;;;;;;42.25;30.45;;;;;;;;;;5029887;28;20268;-69
2021/05/15 08:20:16;;;;;;;40.80;29.48;;;;;;;;;;5022040;28;20198;-69
2021/05/15 08:22:42;;;;;;;42.70;31.95;;;;;;;;;;5027617;28;20615;-69
2021/05/15 08:25:09;;;;;;;38.97;30.05;;;;;;;;;;5019291;28;20220;-69
2021/05/15 08:27:37;;;;;;;43.40;32.78;;;;;;;;;;5029828;28;20286;-70
2021/05/15 08:30:04;;;;;;;42.55;32.35;;;;;;;;;;5019289;28;20258;-69
2021/05/15 08:32:29;;;;;;;50.90;34.40;;;;;;;;;;5030152;28;20220;-69
2021/05/15 08:34:55;;;;;;;51.05;35.38;;;;;;;;;;5019960;28;20613;-70
2021/05/15 08:37:20;;;;;;;47.38;34.05;;;;;;;;;;5029576;28;20182;-69
2021/05/15 08:39:45;;;;;;;48.65;34.33;;;;;;;;;;5031314;28;20196;-69
2021/05/15 08:42:12;;;;;;;43.20;32.20;;;;;;;;;;5018467;28;20204;-70
2021/05/15 08:44:38;;;;;;;47.00;34.50;;;;;;;;;;5028937;28;20233;-69
2021/05/15 08:47:06;;;;;;;44.47;32.25;;;;;;;;;;5021420;28;20204;-70
2021/05/15 08:49:36;;;;;;;49.17;33.90;;;;;;;;;;5030118;28;20659;-70
2021/05/15 08:52:01;;;;;;;49.20;34.90;;;;;;;;;;5020000;28;21444;-70
2021/05/15 08:54:27;;;;;;;45.35;33.05;;;;;;;;;;5027709;28;20319;-69
2021/05/15 08:56:52;;;;;;;37.53;29.42;;;;;;;;;;5017836;28;20212;-69
2021/05/15 08:59:18;;;;;;;44.65;32.55;;;;;;;;;;5024460;28;20190;-69
2021/05/15 09:01:44;;;;;;;43.30;32.25;;;;;;;;;;5016812;28;20660;-69
2021/05/15 09:04:10;;;;;;;43.97;31.27;;;;;;;;;;5028369;28;20189;-70
2021/05/15 09:06:40;;;;;;;45.63;34.20;;;;;;;;;;5018889;28;20188;-70
2021/05/15 09:09:05;;;;;;;44.47;33.17;;;;;;;;;;5026292;28;20228;-70
2021/05/15 09:11:30;;;;;;;46.47;33.08;;;;;;;;;;5025794;28;20288;-70
2021/05/15 09:13:56;;;;;;;47.40;33.97;;;;;;;;;;5021127;28;20193;-70
2021/05/15 09:16:22;;;;;;;46.72;33.05;;;;;;;;;;5027776;28;20186;-69
2021/05/15 09:18:47;;;;;;;51.47;34.47;;;;;;;;;;5019289;28;20189;-70
2021/05/15 09:21:22;;;;;;;48.80;34.95;;;;;;;;;;5025090;28;20179;-70
2021/05/15 09:23:49;;;;;;;51.97;35.83;;;;;;;;;;5019359;28;20660;-70
2021/05/15 09:26:19;;;;;;;55.95;36.30;;;;;;;;;;5026955;28;20653;-70
2021/05/15 09:28:47;;;;;;;49.88;33.38;;;;;;;;;;5020597;28;20181;-69
2021/05/15 09:31:24;;;;;;;45.50;31.92;;;;;;;;;;5025868;28;20206;-70
2021/05/15 09:33:55;;;;;;;48.80;34.17;;;;;;;;;;5020099;28;20185;-71
2021/05/15 09:36:29;;;;;;;52.25;34.40;;;;;;;;;;5027875;28;20240;-70
2021/05/15 09:39:09;;;;;;;51.30;35.78;;;;;;;;;;5018707;28;20190;-71
2021/05/15 09:41:48;;;;;;;49.33;33.90;;;;;;;;;;5020149;28;20212;-70
2021/05/15 09:44:16;;;;;;;48.13;33.88;;;;;;;;;;5018278;28;20230;-70
2021/05/15 09:46:44;;;;;;;49.42;31.92;;;;;;;;;;5028552;28;20526;-70
2021/05/15 09:49:10;;;;;;;49.05;34.20;;;;;;;;;;5019563;28;20186;-70
2021/05/15 09:51:37;;;;;;;45.45;32.95;;;;;;;;;;5025175;28;20688;-70
2021/05/15 09:54:14;;;;;;;44.85;32.30;;;;;;;;;;5020834;28;20975;-70
2021/05/15 09:56:39;;;;;;;42.58;30.65;;;;;;;;;;5027743;28;20845;-70
2021/05/15 09:59:05;;;;;;;41.63;29.45;;;;;;;;;;5017647;28;20248;-70
2021/05/15 10:01:44;;;;;;;42.67;31.40;;;;;;;;;;5028512;28;20209;-69
2021/05/15 10:04:10;;;;;;;45.20;32.25;;;;;;;;;;5026550;28;20186;-70
2021/05/15 10:06:36;;;;;;;43.38;31.20;;;;;;;;;;5022769;28;20193;-70
2021/05/15 10:09:02;;;;;;;45.92;31.75;;;;;;;;;;5027700;28;20190;-70
2021/05/15 10:11:28;;;;;;;44.50;31.30;;;;;;;;;;5017253;28;20675;-70
2021/05/15 10:13:53;;;;;;;42.83;30.75;;;;;;;;;;5026655;28;20190;-70
2021/05/15 10:16:19;;;;;;;43.72;30.38;;;;;;;;;;5014994;28;20185;-70
2021/05/15 10:18:45;;;;;;;42.75;29.73;;;;;;;;;;5025680;28;20182;-70
2021/05/15 10:21:10;;;;;;;44.40;29.63;;;;;;;;;;5018427;28;20221;-70
2021/05/15 10:23:41;;;;;;;44.95;31.15;;;;;;;;;;5027657;28;21353;-70
2021/05/15 10:26:17;;;;;;;40.63;29.25;;;;;;;;;;5020900;28;20201;-71
2021/05/15 10:28:45;;;;;;;42.75;28.95;;;;;;;;;;5025705;28;20598;-69
2021/05/15 10:31:16;;;;;;;41.00;28.55;;;;;;;;;;5018878;28;20213;-69
2021/05/15 10:33:48;;;;;;;41.35;29.05;;;;;;;;;;5026367;28;20550;-70
2021/05/15 10:36:22;;;;;;;39.55;28.13;;;;;;;;;;5016422;28;20193;-70
2021/05/15 10:38:49;;;;;;;38.85;26.75;;;;;;;;;;5025724;28;20656;-71
2021/05/15 10:41:20;;;;;;;40.00;28.65;;;;;;;;;;5018617;28;20212;-71
2021/05/15 10:43:48;;;;;;;39.90;28.67;;;;;;;;;;5030982;28;20710;-70
2021/05/15 10:46:24;;;;;;;37.92;27.90;;;;;;;;;;5031205;28;20591;-69
2021/05/15 10:49:06;;;;;;;37.08;25.33;;;;;;;;;;5023622;28;20311;-70
2021/05/15 10:51:36;;;;;;;37.78;24.65;;;;;;;;;;5032462;28;20722;-70
2021/05/15 10:54:04;;;;;;;35.30;23.73;;;;;;;;;;5025431;28;20345;-69
2021/05/15 10:56:31;;;;;;;34.40;23.55;;;;;;;;;;5035827;28;20201;-71
2021/05/15 10:59:04;;;;;;;36.97;25.08;;;;;;;;;;5026617;28;20194;-70
2021/05/15 11:01:46;;;;;;;35.92;25.48;;;;;;;;;;5036156;28;20237;-69
2021/05/15 11:04:19;;;;;;;34.60;24.38;;;;;;;;;;5021694;28;20547;-70
2021/05/15 11:07:02;;;;;;;35.58;24.58;;;;;;;;;;5028015;28;20208;-69
2021/05/15 11:09:28;;;;;;;36.38;25.65;;;;;;;;;;5020603;28;20281;-70
2021/05/15 11:12:04;;;;;;;35.17;25.48;;;;;;;;;;5032341;28;20597;-70
2021/05/15 11:14:31;;;;;;;33.70;22.48;;;;;;;;;;5021652;28;20508;-69
2021/05/15 11:17:16;;;;;;;32.85;23.42;;;;;;;;;;5029374;28;20658;-69
2021/05/15 11:19:56;;;;;;;28.77;19.75;;;;;;;;;;5015965;28;20190;-70
2021/05/15 11:22:34;;;;;;;26.83;18.20;;;;;;;;;;5027595;28;20191;-69
2021/05/15 11:25:02;;;;;;;29.25;20.90;;;;;;;;;;5020137;28;20559;-69
2021/05/15 11:27:30;;;;;;;28.58;20.20;;;;;;;;;;5029716;28;20201;-69
2021/05/15 11:30:08;;;;;;;26.95;18.75;;;;;;;;;;5022973;28;20182;-69
2021/05/15 11:32:34;;;;;;;18.27;14.63;;;;;;;;;;5027482;28;20237;-69
2021/05/15 11:35:02;;;;;;;20.90;15.73;;;;;;;;;;5021265;28;20268;-70
2021/05/15 11:37:27;;;;;;;18.70;14.73;;;;;;;;;;5025464;28;20186;-70
2021/05/15 11:39:53;;;;;;;18.02;12.50;;;;;;;;;;5020773;28;20224;-69
2021/05/15 11:42:18;;;;;;;22.17;14.07;;;;;;;;;;5027698;28;20280;-70
2021/05/15 11:44:51;;;;;;;29.25;16.10;;;;;;;;;;5015894;28;20292;-68
2021/05/15 11:47:16;;;;;;;20.85;14.32;;;;;;;;;;5026073;28;20193;-69
2021/05/15 11:49:41;;;;;;;19.98;15.20;;;;;;;;;;5026075;28;20177;-69
2021/05/15 11:52:08;;;;;;;22.70;14.98;;;;;;;;;;5015547;28;20452;-70
2021/05/15 11:54:35;;;;;;;20.30;14.95;;;;;;;;;;5026020;28;20193;-70
2021/05/15 11:57:01;;;;;;;22.33;15.88;;;;;;;;;;5017894;28;20833;-69
2021/05/15 11:59:28;;;;;;;22.33;15.13;;;;;;;;;;5027194;28;20216;-70
2021/05/15 12:01:54;;;;;;;20.40;16.10;;;;;;;;;;5013803;28;20296;-70
2021/05/15 12:04:29;;;;;;;21.70;15.82;;;;;;;;;;5024716;28;20242;-70
2021/05/15 12:06:58;;;;;;;21.30;15.88;;;;;;;;;;5018911;28;20196;-70
2021/05/15 12:09:27;;;;;;;22.05;16.58;;;;;;;;;;5027742;28;20797;-70
2021/05/15 12:12:07;;;;;;;21.38;16.65;;;;;;;;;;5024207;28;20366;-70
2021/05/15 12:14:33;;;;;;;19.40;15.20;;;;;;;;;;5029159;28;20217;-70
2021/05/15 12:17:06;;;;;;;21.33;16.27;;;;;;;;;;5020691;28;20243;-70
2021/05/15 12:19:32;;;;;;;23.25;16.67;;;;;;;;;;5023136;28;20205;-70
2021/05/15 12:22:03;;;;;;;22.92;16.83;;;;;;;;;;5020676;28;20553;-70
2021/05/15 12:24:46;;;;;;;21.65;15.95;;;;;;;;;;5024237;28;20182;-70
2021/05/15 12:27:20;;;;;;;24.17;17.58;;;;;;;;;;5016386;28;20186;-70
2021/05/15 12:30:02;;;;;;;22.13;17.00;;;;;;;;;;5026074;28;20194;-70
2021/05/15 12:32:28;;;;;;;23.15;15.88;;;;;;;;;;5017172;28;20210;-70
2021/05/15 12:35:06;;;;;;;22.00;15.02;;;;;;;;;;5026901;28;20421;-70
2021/05/15 12:37:34;;;;;;;23.33;15.93;;;;;;;;;;5022646;28;20188;-69
2021/05/15 12:40:08;;;;;;;25.88;17.15;;;;;;;;;;5025280;28;20225;-70
2021/05/15 12:42:34;;;;;;;23.25;16.98;;;;;;;;;;5025095;28;20258;-70
2021/05/15 12:45:10;;;;;;;19.58;14.40;;;;;;;;;;5025110;28;20783;-70
2021/05/15 12:47:36;;;;;;;19.15;15.00;;;;;;;;;;5029702;28;20277;-70
2021/05/15 12:50:14;;;;;;;22.38;16.00;;;;;;;;;;5019908;28;20201;-71
2021/05/15 12:52:39;;;;;;;18.88;14.98;;;;;;;;;;5030073;28;20203;-70
2021/05/15 12:55:09;;;;;;;20.42;14.95;;;;;;;;;;5017875;28;20182;-70
2021/05/15 12:57:35;;;;;;;21.35;15.98;;;;;;;;;;5032318;28;20205;-70
2021/05/15 13:00:01;;;;;;;21.20;15.68;;;;;;;;;;5021352;28;20213;-71
2021/05/15 13:02:27;;;;;;;20.02;14.50;;;;;;;;;;5029951;28;20193;-70
2021/05/15 13:04:54;;;;;;;18.25;14.27;;;;;;;;;;5020141;28;20630;-70
2021/05/15 13:07:36;;;;;;;18.08;14.40;;;;;;;;;;5027978;28;20181;-71
2021/05/15 13:10:07;;;;;;;19.67;13.95;;;;;;;;;;5020730;28;20217;-70
2021/05/15 13:12:33;;;;;;;19.55;14.07;;;;;;;;;;5030675;28;20758;-70
2021/05/15 13:14:59;;;;;;;20.08;13.15;;;;;;;;;;5024526;28;20196;-71
2021/05/15 13:17:25;;;;;;;16.58;12.80;;;;;;;;;;5028679;28;20185;-70
2021/05/15 13:19:51;;;;;;;17.92;13.80;;;;;;;;;;5021582;28;20186;-70
2021/05/15 13:22:16;;;;;;;15.90;13.15;;;;;;;;;;5028284;28;20186;-70
2021/05/15 13:24:42;;;;;;;20.05;15.05;;;;;;;;;;5026551;28;20544;-70
2021/05/15 13:27:07;;;;;;;20.17;15.00;;;;;;;;;;5018675;28;20201;-70
2021/05/15 13:29:33;;;;;;;20.05;13.75;;;;;;;;;;5023930;28;20273;-69
2021/05/15 13:31:59;;;;;;;17.15;11.38;;;;;;;;;;5017526;28;20549;-69
2021/05/15 13:34:25;;;;;;;16.88;10.68;;;;;;;;;;5029531;28;20283;-69
2021/05/15 13:36:50;;;;;;;11.43;7.32;;;;;;;;;;5016477;28;20193;-68
2021/05/15 13:39:15;;;;;;;8.70;6.90;;;;;;;;;;5027395;28;20722;-69
2021/05/15 13:41:42;;;;;;;7.10;5.72;;;;;;;;;;5019003;28;20200;-68
2021/05/15 13:44:07;;;;;;;6.28;5.13;;;;;;;;;;5024681;28;20265;-69
2021/05/15 13:46:33;;;;;;;7.85;5.43;;;;;;;;;;5017099;28;20316;-69
2021/05/15 13:48:59;;;;;;;10.77;5.75;;;;;;;;;;5027050;28;20178;-69
2021/05/15 13:51:24;;;;;;;6.60;4.95;;;;;;;;;;5016272;28;20216;-69
2021/05/15 13:53:50;;;;;;;6.15;4.97;;;;;;;;;;5028330;28;20243;-70
2021/05/15 13:56:15;;;;;;;6.57;4.70;;;;;;;;;;5024409;28;20207;-69
2021/05/15 13:58:43;;;;;;;5.97;4.25;;;;;;;;;;5019093;28;20244;-69
2021/05/15 14:01:09;;;;;;;4.68;3.85;;;;;;;;;;5027530;28;20192;-69
2021/05/15 14:03:38;;;;;;;5.35;4.30;;;;;;;;;;5014775;28;20197;-69
2021/05/15 14:06:04;;;;;;;5.63;3.97;;;;;;;;;;5025104;28;20197;-69
2021/05/15 14:08:30;;;;;;;4.30;3.45;;;;;;;;;;5020039;28;20251;-69
2021/05/15 14:10:55;;;;;;;3.50;3.03;;;;;;;;;;5020542;28;20218;-69
2021/05/15 14:13:21;;;;;;;3.63;3.20;;;;;;;;;;5019100;28;20727;-69
2021/05/15 14:15:47;;;;;;;3.80;3.40;;;;;;;;;;5026429;28;20201;-70
2021/05/15 14:18:13;;;;;;;3.92;2.90;;;;;;;;;;5019429;28;20190;-70
2021/05/15 14:20:39;;;;;;;3.17;2.78;;;;;;;;;;5023163;28;20197;-70